sensor_id;sensor_type;location;lat;lon;timestamp;P1;durP1;ratioP1;P2;durP2;ratioP2
12768;SDS011;6448;48.916;8.990;2023-12-14T00:00:02;1.40;;;1.30;;
12768;SDS011;6448;48.916;8.990;2023-12-14T00:01:06;1.50;;;1.40;;
12768;SDS011;6448;48.916;8.990;2023-12-14T00:02:10;1.50;;;1.40;;
12768;SDS011;6448;48.916;8.990;2023-12-14T00:03:12;1.65;;;1.50;;
12768;SDS011;6448;48.916;8.990;2023-12-14T00:04:12;1.50;;;1.40;;
12768;SDS011;6448;48.916;8.990;2023-12-14T00:05:14;1.70;;;1.42;;
12768;SDS011;6448;48.916;8.990;2023-12-14T00:06:15;1.50;;;1.40;;
12768;SDS011;6448;48.916;8.990;2023-12-14T00:07:16;1.42;;;1.33;;
12768;SDS011;6448;48.916;8.990;2023-12-14T00:08:17;1.40;;;1.30;;
12768;SDS011;6448;48.916;8.990;2023-12-14T00:09:19;1.50;;;1.40;;
12768;SDS011;6448;48.916;8.990;2023-12-14T00:10:20;1.67;;;1.57;;
12768;SDS011;6448;48.916;8.990;2023-12-14T00:11:21;1.38;;;1.27;;
12768;SDS011;6448;48.916;8.990;2023-12-14T00:12:22;1.70;;;1.60;;
12768;SDS011;6448;48.916;8.990;2023-12-14T00:13:25;1.65;;;1.45;;
12768;SDS011;6448;48.916;8.990;2023-12-14T00:14:26;1.52;;;1.40;;
12768;SDS011;6448;48.916;8.990;2023-12-14T00:15:28;1.67;;;1.58;;
12768;SDS011;6448;48.916;8.990;2023-12-14T00:16:28;1.60;;;1.50;;
12768;SDS011;6448;48.916;8.990;2023-12-14T00:17:30;2.00;;;1.70;;
12768;SDS011;6448;48.916;8.990;2023-12-14T00:18:31;1.73;;;1.60;;
12768;SDS011;6448;48.916;8.990;2023-12-14T00:19:32;2.05;;;1.50;;
12768;SDS011;6448;48.916;8.990;2023-12-14T00:20:33;1.60;;;1.42;;
12768;SDS011;6448;48.916;8.990;2023-12-14T00:21:34;2.10;;;1.60;;
12768;SDS011;6448;48.916;8.990;2023-12-14T00:22:36;1.80;;;1.52;;
12768;SDS011;6448;48.916;8.990;2023-12-14T00:23:37;1.50;;;1.40;;
12768;SDS011;6448;48.916;8.990;2023-12-14T00:24:39;1.60;;;1.50;;
12768;SDS011;6448;48.916;8.990;2023-12-14T00:25:40;1.40;;;1.30;;
12768;SDS011;6448;48.916;8.990;2023-12-14T00:26:41;1.60;;;1.40;;
12768;SDS011;6448;48.916;8.990;2023-12-14T00:27:42;1.40;;;1.30;;
12768;SDS011;6448;48.916;8.990;2023-12-14T00:28:45;1.90;;;1.50;;
12768;SDS011;6448;48.916;8.990;2023-12-14T00:29:46;1.70;;;1.45;;
12768;SDS011;6448;48.916;8.990;2023-12-14T00:30:47;1.50;;;1.40;;
12768;SDS011;6448;48.916;8.990;2023-12-14T00:31:48;1.70;;;1.60;;
12768;SDS011;6448;48.916;8.990;2023-12-14T00:32:49;1.73;;;1.63;;
12768;SDS011;6448;48.916;8.990;2023-12-14T00:33:51;1.42;;;1.33;;
12768;SDS011;6448;48.916;8.990;2023-12-14T00:34:52;1.88;;;1.52;;
12768;SDS011;6448;48.916;8.990;2023-12-14T00:35:54;1.80;;;1.50;;
12768;SDS011;6448;48.916;8.990;2023-12-14T00:36:55;1.50;;;1.40;;
12768;SDS011;6448;48.916;8.990;2023-12-14T00:37:56;1.60;;;1.50;;
12768;SDS011;6448;48.916;8.990;2023-12-14T00:38:57;1.70;;;1.60;;
12768;SDS011;6448;48.916;8.990;2023-12-14T00:39:58;1.50;;;1.40;;
12768;SDS011;6448;48.916;8.990;2023-12-14T00:40:59;1.43;;;1.33;;
12768;SDS011;6448;48.916;8.990;2023-12-14T00:42:00;1.50;;;1.30;;
12768;SDS011;6448;48.916;8.990;2023-12-14T00:43:02;1.60;;;1.40;;
12768;SDS011;6448;48.916;8.990;2023-12-14T00:44:04;1.70;;;1.60;;
12768;SDS011;6448;48.916;8.990;2023-12-14T00:45:06;1.80;;;1.40;;
12768;SDS011;6448;48.916;8.990;2023-12-14T00:46:08;1.85;;;1.65;;
12768;SDS011;6448;48.916;8.990;2023-12-14T00:47:11;1.60;;;1.50;;
12768;SDS011;6448;48.916;8.990;2023-12-14T00:48:12;1.70;;;1.55;;
12768;SDS011;6448;48.916;8.990;2023-12-14T00:49:13;2.00;;;1.42;;
12768;SDS011;6448;48.916;8.990;2023-12-14T00:50:14;1.65;;;1.48;;
12768;SDS011;6448;48.916;8.990;2023-12-14T00:51:16;1.42;;;1.27;;
12768;SDS011;6448;48.916;8.990;2023-12-14T00:52:17;1.63;;;1.50;;
12768;SDS011;6448;48.916;8.990;2023-12-14T00:53:18;1.33;;;1.23;;
12768;SDS011;6448;48.916;8.990;2023-12-14T00:54:19;2.00;;;1.30;;
12768;SDS011;6448;48.916;8.990;2023-12-14T00:55:21;1.53;;;1.43;;
12768;SDS011;6448;48.916;8.990;2023-12-14T00:56:21;1.70;;;1.60;;
12768;SDS011;6448;48.916;8.990;2023-12-14T00:57:23;1.50;;;1.40;;
12768;SDS011;6448;48.916;8.990;2023-12-14T00:58:24;1.73;;;1.50;;
12768;SDS011;6448;48.916;8.990;2023-12-14T00:59:27;1.90;;;1.50;;
12768;SDS011;6448;48.916;8.990;2023-12-14T01:00:29;1.85;;;1.63;;
12768;SDS011;6448;48.916;8.990;2023-12-14T01:01:31;1.63;;;1.52;;
12768;SDS011;6448;48.916;8.990;2023-12-14T01:02:32;2.00;;;1.60;;
12768;SDS011;6448;48.916;8.990;2023-12-14T01:03:33;1.53;;;1.43;;
12768;SDS011;6448;48.916;8.990;2023-12-14T01:04:35;1.60;;;1.50;;
12768;SDS011;6448;48.916;8.990;2023-12-14T01:05:35;1.63;;;1.52;;
12768;SDS011;6448;48.916;8.990;2023-12-14T01:06:37;1.60;;;1.50;;
12768;SDS011;6448;48.916;8.990;2023-12-14T01:07:38;1.53;;;1.30;;
12768;SDS011;6448;48.916;8.990;2023-12-14T01:08:40;1.40;;;1.30;;
12768;SDS011;6448;48.916;8.990;2023-12-14T01:09:40;1.30;;;1.20;;
12768;SDS011;6448;48.916;8.990;2023-12-14T01:10:42;1.40;;;1.30;;
12768;SDS011;6448;48.916;8.990;2023-12-14T01:11:43;1.48;;;1.35;;
12768;SDS011;6448;48.916;8.990;2023-12-14T01:12:44;1.40;;;1.30;;
12768;SDS011;6448;48.916;8.990;2023-12-14T01:13:45;1.40;;;1.30;;
12768;SDS011;6448;48.916;8.990;2023-12-14T01:14:48;1.17;;;1.05;;
12768;SDS011;6448;48.916;8.990;2023-12-14T01:15:49;1.23;;;1.05;;
12768;SDS011;6448;48.916;8.990;2023-12-14T01:16:51;1.17;;;1.08;;
12768;SDS011;6448;48.916;8.990;2023-12-14T01:17:52;1.00;;;1.00;;
12768;SDS011;6448;48.916;8.990;2023-12-14T01:18:53;0.95;;;0.90;;
12768;SDS011;6448;48.916;8.990;2023-12-14T01:19:54;1.50;;;1.20;;
12768;SDS011;6448;48.916;8.990;2023-12-14T01:20:56;1.33;;;1.05;;
12768;SDS011;6448;48.916;8.990;2023-12-14T01:21:56;1.10;;;1.00;;
12768;SDS011;6448;48.916;8.990;2023-12-14T01:22:58;1.15;;;1.00;;
12768;SDS011;6448;48.916;8.990;2023-12-14T01:23:59;1.65;;;1.20;;
12768;SDS011;6448;48.916;8.990;2023-12-14T01:25:01;1.20;;;1.08;;
12768;SDS011;6448;48.916;8.990;2023-12-14T01:26:02;1.10;;;1.00;;
12768;SDS011;6448;48.916;8.990;2023-12-14T01:27:04;1.20;;;1.10;;
12768;SDS011;6448;48.916;8.990;2023-12-14T01:28:05;1.40;;;1.10;;
12768;SDS011;6448;48.916;8.990;2023-12-14T01:29:07;1.38;;;1.27;;
12768;SDS011;6448;48.916;8.990;2023-12-14T01:30:09;1.50;;;1.13;;
12768;SDS011;6448;48.916;8.990;2023-12-14T01:31:12;1.20;;;1.10;;
12768;SDS011;6448;48.916;8.990;2023-12-14T01:32:12;1.38;;;1.20;;
12768;SDS011;6448;48.916;8.990;2023-12-14T01:33:14;1.40;;;1.30;;
12768;SDS011;6448;48.916;8.990;2023-12-14T01:34:15;1.10;;;1.00;;
12768;SDS011;6448;48.916;8.990;2023-12-14T01:35:16;1.40;;;1.20;;
12768;SDS011;6448;48.916;8.990;2023-12-14T01:36:19;1.20;;;1.10;;
12768;SDS011;6448;48.916;8.990;2023-12-14T01:37:21;1.50;;;1.20;;
12768;SDS011;6448;48.916;8.990;2023-12-14T01:38:22;1.23;;;1.13;;
12768;SDS011;6448;48.916;8.990;2023-12-14T01:39:24;1.33;;;1.20;;
12768;SDS011;6448;48.916;8.990;2023-12-14T01:40:24;1.20;;;1.10;;
12768;SDS011;6448;48.916;8.990;2023-12-14T01:41:26;1.35;;;1.15;;
12768;SDS011;6448;48.916;8.990;2023-12-14T01:42:27;1.20;;;1.10;;
12768;SDS011;6448;48.916;8.990;2023-12-14T01:43:28;1.20;;;1.10;;
12768;SDS011;6448;48.916;8.990;2023-12-14T01:44:29;1.40;;;1.10;;
12768;SDS011;6448;48.916;8.990;2023-12-14T01:45:32;1.13;;;1.05;;
12768;SDS011;6448;48.916;8.990;2023-12-14T01:46:33;1.20;;;1.10;;
12768;SDS011;6448;48.916;8.990;2023-12-14T01:47:35;1.75;;;1.15;;
12768;SDS011;6448;48.916;8.990;2023-12-14T01:48:36;1.20;;;1.10;;
12768;SDS011;6448;48.916;8.990;2023-12-14T01:49:37;1.30;;;1.20;;
12768;SDS011;6448;48.916;8.990;2023-12-14T01:50:39;1.15;;;1.00;;
12768;SDS011;6448;48.916;8.990;2023-12-14T01:51:40;1.25;;;0.93;;
12768;SDS011;6448;48.916;8.990;2023-12-14T01:52:41;1.27;;;1.17;;
12768;SDS011;6448;48.916;8.990;2023-12-14T01:53:43;1.60;;;1.10;;
12768;SDS011;6448;48.916;8.990;2023-12-14T01:54:43;1.30;;;1.00;;
12768;SDS011;6448;48.916;8.990;2023-12-14T01:55:44;1.10;;;1.00;;
12768;SDS011;6448;48.916;8.990;2023-12-14T01:56:46;1.20;;;1.10;;
12768;SDS011;6448;48.916;8.990;2023-12-14T01:57:47;1.47;;;1.10;;
12768;SDS011;6448;48.916;8.990;2023-12-14T01:58:49;1.15;;;1.05;;
12768;SDS011;6448;48.916;8.990;2023-12-14T01:59:50;1.20;;;1.10;;
12768;SDS011;6448;48.916;8.990;2023-12-14T02:00:55;1.13;;;1.00;;
12768;SDS011;6448;48.916;8.990;2023-12-14T02:02:02;0.93;;;0.90;;
12768;SDS011;6448;48.916;8.990;2023-12-14T02:03:05;1.17;;;1.00;;
12768;SDS011;6448;48.916;8.990;2023-12-14T02:04:06;1.33;;;0.90;;
12768;SDS011;6448;48.916;8.990;2023-12-14T02:05:07;1.10;;;1.00;;
12768;SDS011;6448;48.916;8.990;2023-12-14T02:06:09;1.00;;;0.90;;
12768;SDS011;6448;48.916;8.990;2023-12-14T02:07:10;1.27;;;1.17;;
12768;SDS011;6448;48.916;8.990;2023-12-14T02:08:11;1.10;;;1.00;;
12768;SDS011;6448;48.916;8.990;2023-12-14T02:09:12;1.30;;;1.10;;
12768;SDS011;6448;48.916;8.990;2023-12-14T02:10:13;1.23;;;0.90;;
12768;SDS011;6448;48.916;8.990;2023-12-14T02:11:14;1.10;;;1.00;;
12768;SDS011;6448;48.916;8.990;2023-12-14T02:12:22;1.20;;;1.10;;
12768;SDS011;6448;48.916;8.990;2023-12-14T02:13:23;1.10;;;1.00;;
12768;SDS011;6448;48.916;8.990;2023-12-14T02:14:26;1.02;;;0.95;;
12768;SDS011;6448;48.916;8.990;2023-12-14T02:15:27;1.10;;;1.00;;
12768;SDS011;6448;48.916;8.990;2023-12-14T02:16:30;1.40;;;1.10;;
12768;SDS011;6448;48.916;8.990;2023-12-14T02:17:31;1.10;;;1.00;;
12768;SDS011;6448;48.916;8.990;2023-12-14T02:18:33;1.20;;;1.10;;
12768;SDS011;6448;48.916;8.990;2023-12-14T02:19:34;1.27;;;1.13;;
12768;SDS011;6448;48.916;8.990;2023-12-14T02:20:35;1.45;;;1.13;;
12768;SDS011;6448;48.916;8.990;2023-12-14T02:21:36;1.38;;;1.27;;
12768;SDS011;6448;48.916;8.990;2023-12-14T02:22:49;1.30;;;1.20;;
12768;SDS011;6448;48.916;8.990;2023-12-14T02:23:51;1.60;;;1.42;;
12768;SDS011;6448;48.916;8.990;2023-12-14T02:24:52;1.50;;;1.40;;
12768;SDS011;6448;48.916;8.990;2023-12-14T02:25:54;1.75;;;1.48;;
12768;SDS011;6448;48.916;8.990;2023-12-14T02:26:54;1.98;;;1.50;;
12768;SDS011;6448;48.916;8.990;2023-12-14T02:27:57;1.65;;;1.55;;
12768;SDS011;6448;48.916;8.990;2023-12-14T02:28:58;1.58;;;1.48;;
12768;SDS011;6448;48.916;8.990;2023-12-14T02:29:59;1.67;;;1.55;;
12768;SDS011;6448;48.916;8.990;2023-12-14T02:31:00;2.47;;;1.60;;
12768;SDS011;6448;48.916;8.990;2023-12-14T02:32:01;1.55;;;1.45;;
12768;SDS011;6448;48.916;8.990;2023-12-14T02:33:03;1.65;;;1.55;;
12768;SDS011;6448;48.916;8.990;2023-12-14T02:34:04;1.55;;;1.45;;
12768;SDS011;6448;48.916;8.990;2023-12-14T02:35:06;1.75;;;1.50;;
12768;SDS011;6448;48.916;8.990;2023-12-14T02:36:07;1.50;;;1.40;;
12768;SDS011;6448;48.916;8.990;2023-12-14T02:37:09;1.52;;;1.42;;
12768;SDS011;6448;48.916;8.990;2023-12-14T02:38:12;1.35;;;1.25;;
12768;SDS011;6448;48.916;8.990;2023-12-14T02:39:14;1.38;;;1.20;;
12768;SDS011;6448;48.916;8.990;2023-12-14T02:40:15;1.23;;;1.13;;
12768;SDS011;6448;48.916;8.990;2023-12-14T02:41:17;1.40;;;1.30;;
12768;SDS011;6448;48.916;8.990;2023-12-14T02:42:18;1.40;;;1.10;;
12768;SDS011;6448;48.916;8.990;2023-12-14T02:43:19;1.17;;;1.05;;
12768;SDS011;6448;48.916;8.990;2023-12-14T02:44:20;1.10;;;1.00;;
12768;SDS011;6448;48.916;8.990;2023-12-14T02:45:22;1.30;;;1.20;;
12768;SDS011;6448;48.916;8.990;2023-12-14T02:46:22;1.20;;;1.10;;
12768;SDS011;6448;48.916;8.990;2023-12-14T02:47:24;1.40;;;1.10;;
12768;SDS011;6448;48.916;8.990;2023-12-14T02:48:25;1.20;;;1.10;;
12768;SDS011;6448;48.916;8.990;2023-12-14T02:49:27;1.17;;;0.98;;
12768;SDS011;6448;48.916;8.990;2023-12-14T02:50:28;1.05;;;1.00;;
12768;SDS011;6448;48.916;8.990;2023-12-14T02:51:29;1.43;;;1.10;;
12768;SDS011;6448;48.916;8.990;2023-12-14T02:52:30;1.48;;;1.00;;
12768;SDS011;6448;48.916;8.990;2023-12-14T02:53:33;1.10;;;1.00;;
12768;SDS011;6448;48.916;8.990;2023-12-14T02:54:34;1.20;;;0.90;;
12768;SDS011;6448;48.916;8.990;2023-12-14T02:55:37;1.55;;;1.00;;
12768;SDS011;6448;48.916;8.990;2023-12-14T02:56:38;1.17;;;1.08;;
12768;SDS011;6448;48.916;8.990;2023-12-14T02:57:39;1.20;;;1.10;;
12768;SDS011;6448;48.916;8.990;2023-12-14T02:58:40;1.20;;;1.00;;
12768;SDS011;6448;48.916;8.990;2023-12-14T02:59:42;1.83;;;1.10;;
12768;SDS011;6448;48.916;8.990;2023-12-14T03:00:42;1.30;;;1.20;;
12768;SDS011;6448;48.916;8.990;2023-12-14T03:01:44;1.20;;;1.10;;
12768;SDS011;6448;48.916;8.990;2023-12-14T03:02:45;1.20;;;1.10;;
12768;SDS011;6448;48.916;8.990;2023-12-14T03:03:46;1.40;;;1.30;;
12768;SDS011;6448;48.916;8.990;2023-12-14T03:04:47;1.20;;;1.10;;
12768;SDS011;6448;48.916;8.990;2023-12-14T03:05:48;1.30;;;1.20;;
12768;SDS011;6448;48.916;8.990;2023-12-14T03:06:50;1.30;;;1.20;;
12768;SDS011;6448;48.916;8.990;2023-12-14T03:07:51;1.30;;;1.20;;
12768;SDS011;6448;48.916;8.990;2023-12-14T03:08:54;1.63;;;1.38;;
12768;SDS011;6448;48.916;8.990;2023-12-14T03:09:55;1.63;;;1.40;;
12768;SDS011;6448;48.916;8.990;2023-12-14T03:10:56;1.40;;;1.30;;
12768;SDS011;6448;48.916;8.990;2023-12-14T03:11:57;1.40;;;1.30;;
12768;SDS011;6448;48.916;8.990;2023-12-14T03:13:00;1.80;;;1.48;;
12768;SDS011;6448;48.916;8.990;2023-12-14T03:14:00;1.70;;;1.40;;
12768;SDS011;6448;48.916;8.990;2023-12-14T03:15:02;1.70;;;1.50;;
12768;SDS011;6448;48.916;8.990;2023-12-14T03:16:04;1.70;;;1.48;;
12768;SDS011;6448;48.916;8.990;2023-12-14T03:17:07;1.50;;;1.40;;
12768;SDS011;6448;48.916;8.990;2023-12-14T03:18:12;1.63;;;1.52;;
12768;SDS011;6448;48.916;8.990;2023-12-14T03:19:14;1.50;;;1.40;;
12768;SDS011;6448;48.916;8.990;2023-12-14T03:20:15;1.52;;;1.42;;
12768;SDS011;6448;48.916;8.990;2023-12-14T03:21:16;1.60;;;1.50;;
12768;SDS011;6448;48.916;8.990;2023-12-14T03:22:18;1.77;;;1.65;;
12768;SDS011;6448;48.916;8.990;2023-12-14T03:23:18;1.90;;;1.80;;
12768;SDS011;6448;48.916;8.990;2023-12-14T03:24:22;1.70;;;1.60;;
12768;SDS011;6448;48.916;8.990;2023-12-14T03:25:22;1.80;;;1.70;;
12768;SDS011;6448;48.916;8.990;2023-12-14T03:26:24;1.65;;;1.55;;
12768;SDS011;6448;48.916;8.990;2023-12-14T03:27:25;1.63;;;1.52;;
12768;SDS011;6448;48.916;8.990;2023-12-14T03:28:27;1.75;;;1.65;;
12768;SDS011;6448;48.916;8.990;2023-12-14T03:29:28;1.73;;;1.50;;
12768;SDS011;6448;48.916;8.990;2023-12-14T03:30:30;1.80;;;1.70;;
12768;SDS011;6448;48.916;8.990;2023-12-14T03:31:32;2.22;;;1.52;;
12768;SDS011;6448;48.916;8.990;2023-12-14T03:32:35;1.60;;;1.50;;
12768;SDS011;6448;48.916;8.990;2023-12-14T03:33:36;2.35;;;1.65;;
12768;SDS011;6448;48.916;8.990;2023-12-14T03:34:38;1.65;;;1.55;;
12768;SDS011;6448;48.916;8.990;2023-12-14T03:35:38;1.75;;;1.55;;
12768;SDS011;6448;48.916;8.990;2023-12-14T03:36:42;1.70;;;1.60;;
12768;SDS011;6448;48.916;8.990;2023-12-14T03:37:42;1.70;;;1.60;;
12768;SDS011;6448;48.916;8.990;2023-12-14T03:38:44;1.70;;;1.60;;
12768;SDS011;6448;48.916;8.990;2023-12-14T03:39:46;2.08;;;1.73;;
12768;SDS011;6448;48.916;8.990;2023-12-14T03:40:48;1.75;;;1.65;;
12768;SDS011;6448;48.916;8.990;2023-12-14T03:41:49;1.60;;;1.50;;
12768;SDS011;6448;48.916;8.990;2023-12-14T03:42:50;1.60;;;1.50;;
12768;SDS011;6448;48.916;8.990;2023-12-14T03:43:51;1.80;;;1.70;;
12768;SDS011;6448;48.916;8.990;2023-12-14T03:44:52;1.60;;;1.50;;
12768;SDS011;6448;48.916;8.990;2023-12-14T03:45:54;1.65;;;1.55;;
12768;SDS011;6448;48.916;8.990;2023-12-14T03:46:54;1.50;;;1.40;;
12768;SDS011;6448;48.916;8.990;2023-12-14T03:47:58;1.60;;;1.50;;
12768;SDS011;6448;48.916;8.990;2023-12-14T03:48:58;1.70;;;1.60;;
12768;SDS011;6448;48.916;8.990;2023-12-14T03:50:00;1.77;;;1.67;;
12768;SDS011;6448;48.916;8.990;2023-12-14T03:51:02;1.95;;;1.75;;
12768;SDS011;6448;48.916;8.990;2023-12-14T03:52:04;1.90;;;1.80;;
12768;SDS011;6448;48.916;8.990;2023-12-14T03:53:05;1.80;;;1.70;;
12768;SDS011;6448;48.916;8.990;2023-12-14T03:54:07;1.80;;;1.60;;
12768;SDS011;6448;48.916;8.990;2023-12-14T03:55:09;1.80;;;1.70;;
12768;SDS011;6448;48.916;8.990;2023-12-14T03:56:11;2.15;;;1.80;;
12768;SDS011;6448;48.916;8.990;2023-12-14T03:57:12;1.98;;;1.77;;
12768;SDS011;6448;48.916;8.990;2023-12-14T03:58:12;2.10;;;1.90;;
12768;SDS011;6448;48.916;8.990;2023-12-14T03:59:14;2.38;;;1.92;;
12768;SDS011;6448;48.916;8.990;2023-12-14T04:00:15;1.92;;;1.77;;
12768;SDS011;6448;48.916;8.990;2023-12-14T04:01:18;1.80;;;1.70;;
12768;SDS011;6448;48.916;8.990;2023-12-14T04:02:19;1.95;;;1.70;;
12768;SDS011;6448;48.916;8.990;2023-12-14T04:03:21;2.20;;;2.00;;
12768;SDS011;6448;48.916;8.990;2023-12-14T04:04:22;1.80;;;1.70;;
12768;SDS011;6448;48.916;8.990;2023-12-14T04:05:23;1.70;;;1.60;;
12768;SDS011;6448;48.916;8.990;2023-12-14T04:06:24;1.83;;;1.70;;
12768;SDS011;6448;48.916;8.990;2023-12-14T04:07:25;2.20;;;2.00;;
12768;SDS011;6448;48.916;8.990;2023-12-14T04:08:27;1.80;;;1.70;;
12768;SDS011;6448;48.916;8.990;2023-12-14T04:09:27;2.33;;;1.85;;
12768;SDS011;6448;48.916;8.990;2023-12-14T04:10:31;2.20;;;1.80;;
12768;SDS011;6448;48.916;8.990;2023-12-14T04:11:31;1.70;;;1.60;;
12768;SDS011;6448;48.916;8.990;2023-12-14T04:12:33;1.70;;;1.60;;
12768;SDS011;6448;48.916;8.990;2023-12-14T04:13:34;2.27;;;1.63;;
12768;SDS011;6448;48.916;8.990;2023-12-14T04:14:36;1.67;;;1.58;;
12768;SDS011;6448;48.916;8.990;2023-12-14T04:15:37;1.60;;;1.50;;
12768;SDS011;6448;48.916;8.990;2023-12-14T04:16:39;2.00;;;1.80;;
12768;SDS011;6448;48.916;8.990;2023-12-14T04:17:39;1.80;;;1.70;;
12768;SDS011;6448;48.916;8.990;2023-12-14T04:18:41;2.25;;;1.70;;
12768;SDS011;6448;48.916;8.990;2023-12-14T04:19:42;1.70;;;1.60;;
12768;SDS011;6448;48.916;8.990;2023-12-14T04:20:44;2.13;;;2.00;;
12768;SDS011;6448;48.916;8.990;2023-12-14T04:21:44;2.10;;;2.00;;
12768;SDS011;6448;48.916;8.990;2023-12-14T04:22:46;1.80;;;1.70;;
12768;SDS011;6448;48.916;8.990;2023-12-14T04:23:48;2.25;;;1.80;;
12768;SDS011;6448;48.916;8.990;2023-12-14T04:24:50;2.17;;;1.70;;
12768;SDS011;6448;48.916;8.990;2023-12-14T04:25:52;2.10;;;1.60;;
12768;SDS011;6448;48.916;8.990;2023-12-14T04:26:53;1.63;;;1.52;;
12768;SDS011;6448;48.916;8.990;2023-12-14T04:27:55;2.13;;;1.67;;
12768;SDS011;6448;48.916;8.990;2023-12-14T04:28:56;1.60;;;1.50;;
12768;SDS011;6448;48.916;8.990;2023-12-14T04:29:57;1.50;;;1.40;;
12768;SDS011;6448;48.916;8.990;2023-12-14T04:30:58;1.57;;;1.47;;
12768;SDS011;6448;48.916;8.990;2023-12-14T04:31:59;1.70;;;1.60;;
12768;SDS011;6448;48.916;8.990;2023-12-14T04:33:00;1.60;;;1.50;;
12768;SDS011;6448;48.916;8.990;2023-12-14T04:34:01;1.75;;;1.60;;
12768;SDS011;6448;48.916;8.990;2023-12-14T04:35:03;1.50;;;1.40;;
12768;SDS011;6448;48.916;8.990;2023-12-14T04:36:05;1.60;;;1.50;;
12768;SDS011;6448;48.916;8.990;2023-12-14T04:37:07;1.50;;;1.40;;
12768;SDS011;6448;48.916;8.990;2023-12-14T04:38:08;1.50;;;1.40;;
12768;SDS011;6448;48.916;8.990;2023-12-14T04:39:10;1.77;;;1.50;;
12768;SDS011;6448;48.916;8.990;2023-12-14T04:40:11;2.20;;;1.60;;
12768;SDS011;6448;48.916;8.990;2023-12-14T04:41:14;1.80;;;1.60;;
12768;SDS011;6448;48.916;8.990;2023-12-14T04:42:15;1.70;;;1.60;;
12768;SDS011;6448;48.916;8.990;2023-12-14T04:43:17;2.00;;;1.60;;
12768;SDS011;6448;48.916;8.990;2023-12-14T04:44:18;1.70;;;1.60;;
12768;SDS011;6448;48.916;8.990;2023-12-14T04:45:19;2.08;;;1.88;;
12768;SDS011;6448;48.916;8.990;2023-12-14T04:46:20;2.10;;;1.77;;
12768;SDS011;6448;48.916;8.990;2023-12-14T04:47:21;1.90;;;1.60;;
12768;SDS011;6448;48.916;8.990;2023-12-14T04:48:24;1.80;;;1.60;;
12768;SDS011;6448;48.916;8.990;2023-12-14T04:49:24;1.60;;;1.50;;
12768;SDS011;6448;48.916;8.990;2023-12-14T04:50:26;1.48;;;1.38;;
12768;SDS011;6448;48.916;8.990;2023-12-14T04:51:28;2.30;;;1.60;;
12768;SDS011;6448;48.916;8.990;2023-12-14T04:52:29;2.55;;;1.58;;
12768;SDS011;6448;48.916;8.990;2023-12-14T04:53:30;1.58;;;1.48;;
12768;SDS011;6448;48.916;8.990;2023-12-14T04:54:32;1.60;;;1.50;;
12768;SDS011;6448;48.916;8.990;2023-12-14T04:55:35;1.67;;;1.40;;
12768;SDS011;6448;48.916;8.990;2023-12-14T04:56:38;1.60;;;1.50;;
12768;SDS011;6448;48.916;8.990;2023-12-14T04:57:39;1.95;;;1.50;;
12768;SDS011;6448;48.916;8.990;2023-12-14T04:58:40;1.60;;;1.50;;
12768;SDS011;6448;48.916;8.990;2023-12-14T04:59:42;1.63;;;1.52;;
12768;SDS011;6448;48.916;8.990;2023-12-14T05:00:43;1.40;;;1.30;;
12768;SDS011;6448;48.916;8.990;2023-12-14T05:01:45;1.88;;;1.70;;
12768;SDS011;6448;48.916;8.990;2023-12-14T05:02:46;1.58;;;1.48;;
12768;SDS011;6448;48.916;8.990;2023-12-14T05:03:49;2.00;;;1.60;;
12768;SDS011;6448;48.916;8.990;2023-12-14T05:04:50;1.50;;;1.40;;
12768;SDS011;6448;48.916;8.990;2023-12-14T05:05:52;1.58;;;1.48;;
12768;SDS011;6448;48.916;8.990;2023-12-14T05:06:52;1.80;;;1.70;;
12768;SDS011;6448;48.916;8.990;2023-12-14T05:07:55;1.50;;;1.40;;
12768;SDS011;6448;48.916;8.990;2023-12-14T05:08:56;1.80;;;1.70;;
12768;SDS011;6448;48.916;8.990;2023-12-14T05:09:58;1.80;;;1.70;;
12768;SDS011;6448;48.916;8.990;2023-12-14T05:10:59;1.73;;;1.63;;
12768;SDS011;6448;48.916;8.990;2023-12-14T05:12:02;2.28;;;1.85;;
12768;SDS011;6448;48.916;8.990;2023-12-14T05:13:04;2.00;;;1.80;;
12768;SDS011;6448;48.916;8.990;2023-12-14T05:14:06;1.80;;;1.70;;
12768;SDS011;6448;48.916;8.990;2023-12-14T05:15:07;2.08;;;1.88;;
12768;SDS011;6448;48.916;8.990;2023-12-14T05:16:12;1.80;;;1.70;;
12768;SDS011;6448;48.916;8.990;2023-12-14T05:17:14;1.90;;;1.80;;
12768;SDS011;6448;48.916;8.990;2023-12-14T05:18:15;1.80;;;1.70;;
12768;SDS011;6448;48.916;8.990;2023-12-14T05:19:16;1.90;;;1.80;;
12768;SDS011;6448;48.916;8.990;2023-12-14T05:20:18;1.85;;;1.75;;
12768;SDS011;6448;48.916;8.990;2023-12-14T05:21:20;2.00;;;1.90;;
12768;SDS011;6448;48.916;8.990;2023-12-14T05:22:22;1.90;;;1.80;;
12768;SDS011;6448;48.916;8.990;2023-12-14T05:23:23;2.17;;;2.00;;
12768;SDS011;6448;48.916;8.990;2023-12-14T05:24:25;2.00;;;1.90;;
12768;SDS011;6448;48.916;8.990;2023-12-14T05:25:25;2.10;;;2.00;;
12768;SDS011;6448;48.916;8.990;2023-12-14T05:26:27;2.30;;;2.10;;
12768;SDS011;6448;48.916;8.990;2023-12-14T05:27:29;2.67;;;2.20;;
12768;SDS011;6448;48.916;8.990;2023-12-14T05:28:30;2.20;;;2.10;;
12768;SDS011;6448;48.916;8.990;2023-12-14T05:29:32;2.33;;;2.13;;
12768;SDS011;6448;48.916;8.990;2023-12-14T05:30:33;2.40;;;2.20;;
12768;SDS011;6448;48.916;8.990;2023-12-14T05:31:35;2.58;;;2.38;;
12768;SDS011;6448;48.916;8.990;2023-12-14T05:32:36;2.30;;;2.10;;
12768;SDS011;6448;48.916;8.990;2023-12-14T05:33:36;2.47;;;2.28;;
12768;SDS011;6448;48.916;8.990;2023-12-14T05:34:38;2.50;;;2.30;;
12768;SDS011;6448;48.916;8.990;2023-12-14T05:35:39;2.25;;;2.13;;
12768;SDS011;6448;48.916;8.990;2023-12-14T05:36:40;2.40;;;2.20;;
12768;SDS011;6448;48.916;8.990;2023-12-14T05:37:41;2.50;;;2.30;;
12768;SDS011;6448;48.916;8.990;2023-12-14T05:38:43;2.50;;;2.30;;
12768;SDS011;6448;48.916;8.990;2023-12-14T05:39:44;2.20;;;2.10;;
12768;SDS011;6448;48.916;8.990;2023-12-14T05:40:45;2.70;;;2.50;;
12768;SDS011;6448;48.916;8.990;2023-12-14T05:41:47;2.70;;;2.50;;
12768;SDS011;6448;48.916;8.990;2023-12-14T05:42:49;2.78;;;2.58;;
12768;SDS011;6448;48.916;8.990;2023-12-14T05:43:51;2.47;;;2.28;;
12768;SDS011;6448;48.916;8.990;2023-12-14T05:44:52;2.50;;;2.30;;
12768;SDS011;6448;48.916;8.990;2023-12-14T05:45:53;2.50;;;2.30;;
12768;SDS011;6448;48.916;8.990;2023-12-14T05:46:54;2.58;;;2.40;;
12768;SDS011;6448;48.916;8.990;2023-12-14T05:47:55;2.70;;;2.50;;
12768;SDS011;6448;48.916;8.990;2023-12-14T05:48:57;2.60;;;2.40;;
12768;SDS011;6448;48.916;8.990;2023-12-14T05:49:58;2.63;;;2.42;;
12768;SDS011;6448;48.916;8.990;2023-12-14T05:51:01;2.70;;;2.50;;
12768;SDS011;6448;48.916;8.990;2023-12-14T05:52:02;2.47;;;2.30;;
12768;SDS011;6448;48.916;8.990;2023-12-14T05:53:04;2.80;;;2.60;;
12768;SDS011;6448;48.916;8.990;2023-12-14T05:54:05;2.60;;;2.40;;
12768;SDS011;6448;48.916;8.990;2023-12-14T05:55:07;2.67;;;2.47;;
12768;SDS011;6448;48.916;8.990;2023-12-14T05:56:10;2.70;;;2.50;;
12768;SDS011;6448;48.916;8.990;2023-12-14T05:57:10;2.80;;;2.60;;
12768;SDS011;6448;48.916;8.990;2023-12-14T05:58:14;2.88;;;2.67;;
12768;SDS011;6448;48.916;8.990;2023-12-14T05:59:15;2.70;;;2.50;;
12768;SDS011;6448;48.916;8.990;2023-12-14T06:00:18;2.80;;;2.60;;
12768;SDS011;6448;48.916;8.990;2023-12-14T06:01:19;3.03;;;2.83;;
12768;SDS011;6448;48.916;8.990;2023-12-14T06:02:21;2.90;;;2.70;;
12768;SDS011;6448;48.916;8.990;2023-12-14T06:03:22;3.25;;;3.03;;
12768;SDS011;6448;48.916;8.990;2023-12-14T06:04:23;3.00;;;2.80;;
12768;SDS011;6448;48.916;8.990;2023-12-14T06:05:24;3.00;;;2.80;;
12768;SDS011;6448;48.916;8.990;2023-12-14T06:06:26;3.40;;;3.10;;
12768;SDS011;6448;48.916;8.990;2023-12-14T06:07:27;3.58;;;3.28;;
12768;SDS011;6448;48.916;8.990;2023-12-14T06:08:28;3.70;;;3.40;;
12768;SDS011;6448;48.916;8.990;2023-12-14T06:09:29;4.10;;;3.80;;
12768;SDS011;6448;48.916;8.990;2023-12-14T06:10:34;3.85;;;3.55;;
12768;SDS011;6448;48.916;8.990;2023-12-14T06:11:34;3.35;;;3.15;;
12768;SDS011;6448;48.916;8.990;2023-12-14T06:12:37;3.35;;;3.15;;
12768;SDS011;6448;48.916;8.990;2023-12-14T06:13:40;2.90;;;2.70;;
12768;SDS011;6448;48.916;8.990;2023-12-14T06:14:41;3.10;;;2.90;;
12768;SDS011;6448;48.916;8.990;2023-12-14T06:15:42;2.90;;;2.70;;